Time;durP1;ratioP1;P1;durP2;ratioP2;P2;SDS_P1;SDS_P2;PMS_P1;PMS_P2;Temp;Humidity;BMP_temperature;BMP_pressure;BME280_temperature;BME280_humidity;BME280_pressure;Samples;Min_cycle;Max_cycle;Signal;HPM_P1;HPM_P2
2021/08/18 00:00:14;;;;;;;7.90;4.00;;;18.40;99.90;;;18.73;84.36;101544.94;5073591;28;20450;-69
2021/08/18 00:02:42;;;;;;;5.25;3.83;;;18.40;99.90;;;18.79;83.96;101536.75;5073403;28;20420;-67
2021/08/18 00:05:15;;;;;;;6.05;3.95;;;18.50;99.90;;;18.66;84.18;101543.38;5073232;28;20140;-67
2021/08/18 00:07:45;;;;;;;5.45;3.88;;;18.40;99.90;;;18.80;83.73;101546.53;5073549;28;20465;-67
2021/08/18 00:10:15;;;;;;;5.60;3.80;;;18.40;99.90;;;18.84;83.73;101557.13;5072675;28;20404;-67
2021/08/18 00:12:43;;;;;;;5.30;3.97;;;18.50;99.90;;;18.81;83.88;101543.78;5073144;28;20072;-68
2021/08/18 00:15:15;;;;;;;5.70;4.15;;;18.50;99.90;;;18.72;84.11;101545.84;5055473;28;20490;-67
2021/08/18 00:17:46;;;;;;;4.88;3.67;;;18.40;99.90;;;18.63;84.68;101555.03;5073221;28;20136;-68
2021/08/18 00:20:17;;;;;;;6.90;4.07;;;18.30;99.90;;;18.72;84.94;101544.06;5073047;28;20040;-68
2021/08/18 00:22:47;;;;;;;4.50;3.60;;;18.40;99.90;;;18.73;85.00;101548.50;5073216;28;20094;-67
2021/08/18 00:25:15;;;;;;;8.45;4.00;;;18.40;99.90;;;18.75;84.96;101546.66;5073683;28;20067;-68
2021/08/18 00:27:46;;;;;;;8.80;3.72;;;18.40;99.90;;;18.60;85.63;101541.69;5073020;28;20047;-67
2021/08/18 00:30:15;;;;;;;4.40;3.53;;;18.30;99.90;;;18.58;86.20;101546.22;5073338;28;20064;-67
2021/08/18 00:32:43;;;;;;;7.47;4.15;;;18.20;99.90;;;18.59;86.25;101537.28;5072907;28;20148;-68
2021/08/18 00:35:12;;;;;;;5.53;3.70;;;18.30;99.90;;;18.71;86.23;101550.34;5073010;28;20490;-67
2021/08/18 00:37:41;;;;;;;4.15;3.75;;;18.30;99.90;;;18.68;86.10;101538.81;5073280;28;20060;-68
2021/08/18 00:40:12;;;;;;;7.10;4.15;;;18.30;99.90;;;18.62;85.85;101528.28;5072994;28;20045;-67
2021/08/18 00:42:44;;;;;;;6.25;3.70;;;18.30;99.90;;;17.98;85.92;101422.78;5073443;28;20044;-67
2021/08/18 00:45:14;;;;;;;4.93;3.78;;;18.20;99.90;;;18.57;85.99;101536.44;5072947;28;20048;-67
2021/08/18 00:47:44;;;;;;;8.13;3.88;;;18.20;99.90;;;18.56;85.86;101529.28;5054725;28;20057;-67
2021/08/18 00:50:16;;;;;;;6.30;4.30;;;18.20;99.90;;;18.54;86.26;101535.63;5072787;28;20040;-68
2021/08/18 00:52:46;;;;;;;4.72;3.45;;;18.20;99.90;;;18.42;85.94;101503.78;5072958;28;20447;-67
2021/08/18 00:55:19;;;;;;;6.43;3.28;;;18.20;99.90;;;18.56;85.95;101531.97;5073171;28;20098;-67
2021/08/18 00:57:48;;;;;;;8.00;3.47;;;18.20;99.90;;;18.66;86.07;101533.50;5055141;28;20041;-68
2021/08/18 01:00:19;;;;;;;5.90;3.13;;;18.20;99.90;;;18.59;85.92;101523.88;5072890;28;20459;-68
2021/08/18 01:02:49;;;;;;;7.07;3.60;;;18.20;99.90;;;18.72;85.79;101527.97;5055081;28;20131;-67
2021/08/18 01:05:22;;;;;;;5.30;3.55;;;18.30;99.90;;;18.70;85.26;101534.28;5055197;28;20523;-67
2021/08/18 01:07:53;;;;;;;6.07;3.42;;;18.30;99.90;;;18.73;85.44;101528.88;5073068;28;20131;-67
2021/08/18 01:10:24;;;;;;;;;;;18.40;99.90;;;18.72;85.12;101529.75;5073072;28;20037;-67
2021/08/18 01:12:53;;;;;;;;;;;18.40;99.90;;;18.75;85.28;101529.69;5055591;28;19924;-67
2021/08/18 01:15:24;;;;;;;6.35;3.65;;;18.40;99.90;;;18.77;85.66;101531.44;5072705;28;19948;-67
2021/08/18 01:17:55;;;;;;;4.97;3.88;;;18.40;99.90;;;18.67;85.69;101531.69;5071762;28;20048;-68
2021/08/18 01:20:27;;;;;;;4.45;3.90;;;18.30;99.90;;;18.65;85.96;101514.78;5073188;28;20048;-67
2021/08/18 01:22:59;;;;;;;4.05;3.40;;;18.30;99.90;;;18.76;85.48;101531.44;5074442;28;20045;-67
2021/08/18 01:25:29;;;;;;;6.20;3.60;;;18.40;99.90;;;18.80;84.99;101536.69;5076424;28;20068;-67
2021/08/18 01:28:00;;;;;;;8.43;3.67;;;18.40;99.90;;;18.80;85.01;101535.81;5076731;28;20068;-67
2021/08/18 01:30:31;;;;;;;7.30;4.13;;;18.40;99.90;;;18.87;84.38;101535.59;5076434;28;20060;-67
2021/08/18 01:33:04;;;;;;;4.72;4.13;;;18.50;99.90;;;18.93;83.96;101535.41;5076540;28;20048;-67
2021/08/18 01:35:35;;;;;;;5.82;3.67;;;18.50;99.90;;;18.79;84.31;101534.91;5076861;28;20072;-67
2021/08/18 01:38:06;;;;;;;6.55;3.50;;;18.40;99.90;;;18.91;84.33;101536.41;5076250;28;20071;-67
2021/08/18 01:40:35;;;;;;;3.85;3.35;;;18.50;99.90;;;18.98;83.50;101537.97;5076094;28;20106;-67
2021/08/18 01:43:04;;;;;;;9.00;4.22;;;18.50;99.90;;;18.92;83.31;101532.78;5076364;28;20136;-67
2021/08/18 01:45:40;;;;;;;6.15;3.72;;;18.50;99.90;;;18.85;83.62;101536.56;5076426;28;20071;-68
2021/08/18 01:48:10;;;;;;;7.63;3.90;;;18.50;99.90;;;18.82;83.58;101521.44;5076056;28;20461;-68
2021/08/18 01:50:43;;;;;;;5.60;3.92;;;18.50;99.90;;;18.87;83.67;101527.53;5076122;28;20063;-67
2021/08/18 01:53:16;;;;;;;5.45;3.80;;;18.50;99.90;;;18.91;83.61;101529.22;5075811;28;20041;-67
2021/08/18 01:55:44;;;;;;;5.35;3.60;;;18.50;99.90;;;18.93;84.02;101529.16;5075952;28;20453;-68
2021/08/18 01:58:13;;;;;;;8.25;4.18;;;18.60;99.90;;;18.81;84.00;101526.84;5075769;28;20037;-68
2021/08/18 02:00:44;;;;;;;4.45;3.85;;;18.50;99.90;;;18.87;84.00;101524.88;5075652;28;20098;-68
2021/08/18 02:03:12;;;;;;;4.47;3.50;;;18.50;99.90;;;18.76;84.70;101529.66;5075731;28;20044;-68
2021/08/18 02:05:41;;;;;;;6.40;3.65;;;18.40;99.90;;;18.81;85.14;101530.38;5075598;28;20101;-68
2021/08/18 02:08:09;;;;;;;7.25;3.78;;;18.40;99.90;;;18.77;85.20;101523.38;5076037;28;20097;-68
2021/08/18 02:10:38;;;;;;;6.88;3.95;;;18.40;99.90;;;18.69;86.11;101520.03;5075857;28;20549;-68
2021/08/18 02:13:06;;;;;;;11.45;4.38;;;18.40;99.90;;;18.78;85.78;101513.53;5075328;28;20043;-67
2021/08/18 02:15:36;;;;;;;8.20;4.00;;;18.30;99.90;;;18.96;85.22;101517.47;5075579;28;20464;-67
2021/08/18 02:18:07;;;;;;;10.10;4.70;;;18.50;99.90;;;19.01;84.70;101519.09;5074333;28;20558;-68
2021/08/18 02:20:39;;;;;;;6.43;4.10;;;18.60;99.90;;;18.96;84.68;101525.53;5075301;28;20555;-67
2021/08/18 02:23:08;;;;;;;4.68;3.72;;;18.60;99.90;;;19.05;84.53;101519.94;5075259;28;20045;-67
2021/08/18 02:25:38;;;;;;;6.47;4.50;;;18.60;99.90;;;18.96;84.67;101517.47;5075107;28;20046;-67
2021/08/18 02:28:07;;;;;;;5.43;3.88;;;18.60;99.90;;;19.02;84.38;101523.56;5075114;28;20094;-67
2021/08/18 02:30:37;;;;;;;5.45;4.13;;;18.60;99.90;;;18.73;84.86;101497.59;5075067;28;20518;-67
2021/08/18 02:33:08;;;;;;;6.30;4.80;;;18.50;99.90;;;18.80;85.63;101517.94;5074698;28;20048;-67
2021/08/18 02:35:37;;;;;;;8.50;3.97;;;18.50;99.90;;;18.89;85.61;101517.66;5075312;28;20432;-67
2021/08/18 02:38:07;;;;;;;5.95;4.35;;;18.50;99.90;;;18.89;85.69;101523.03;5073961;28;20040;-68
2021/08/18 02:40:36;;;;;;;5.80;4.07;;;18.50;99.90;;;18.87;85.54;101514.13;5075167;28;20119;-67
2021/08/18 02:43:05;;;;;;;7.60;4.10;;;18.50;99.90;;;18.92;85.65;101525.63;5074855;28;20048;-67
2021/08/18 02:45:34;;;;;;;6.22;4.15;;;18.50;99.90;;;18.89;85.01;101498.03;5075337;28;20512;-68
2021/08/18 02:48:04;;;;;;;7.40;4.60;;;18.60;99.90;;;18.91;85.14;101521.19;5074754;28;20075;-67
2021/08/18 02:50:34;;;;;;;7.20;3.90;;;18.50;99.90;;;18.84;85.42;101519.59;5074792;28;20106;-67
2021/08/18 02:53:02;;;;;;;6.93;4.80;;;18.50;99.90;;;18.87;85.30;101518.66;5056971;28;20048;-68
2021/08/18 02:55:31;;;;;;;5.05;4.30;;;18.50;99.90;;;18.79;85.45;101526.00;5075125;28;20282;-67
2021/08/18 02:57:59;;;;;;;6.13;3.92;;;18.40;99.90;;;18.87;85.35;101529.38;5074471;28;20382;-68
2021/08/18 03:00:28;;;;;;;6.10;3.67;;;18.40;99.90;;;18.86;84.81;101516.88;5074500;28;20075;-67
2021/08/18 03:02:57;;;;;;;7.35;4.30;;;18.50;99.90;;;18.86;84.59;101520.44;5074424;28;20068;-68
2021/08/18 03:05:26;;;;;;;6.15;3.80;;;18.50;99.90;;;18.90;84.56;101529.28;5056965;28;20048;-68
2021/08/18 03:07:56;;;;;;;6.07;3.78;;;18.50;99.90;;;18.93;84.37;101531.84;5074200;28;20556;-67
2021/08/18 03:10:25;;;;;;;4.53;3.38;;;18.50;99.90;;;19.00;84.06;101524.53;5074778;28;20132;-68
2021/08/18 03:12:54;;;;;;;5.67;3.57;;;18.60;99.90;;;18.99;83.91;101522.78;5074746;28;20629;-68
2021/08/18 03:15:23;;;;;;;5.75;3.70;;;18.60;99.90;;;18.95;83.53;101519.28;5056500;28;20048;-67
2021/08/18 03:17:52;;;;;;;7.28;3.45;;;18.50;99.90;;;18.97;83.69;101517.44;5072851;28;20110;-67
2021/08/18 03:20:21;;;;;;;6.82;3.53;;;18.50;99.90;;;18.95;83.37;101531.84;5073112;28;20098;-68
2021/08/18 03:22:49;;;;;;;6.30;3.42;;;18.60;99.90;;;19.00;83.27;101517.38;5074035;28;20063;-68
2021/08/18 03:25:20;;;;;;;5.55;3.90;;;18.60;99.90;;;19.03;83.50;101513.72;5056253;28;20049;-68
2021/08/18 03:27:48;;;;;;;6.82;3.85;;;18.60;99.90;;;19.14;83.43;101517.84;5073929;28;20136;-67
2021/08/18 03:30:17;;;;;;;4.85;3.78;;;18.70;99.90;;;19.17;82.99;101517.75;5073850;28;20490;-68
2021/08/18 03:32:46;;;;;;;7.10;4.13;;;18.70;99.90;;;19.18;83.01;101527.53;5073808;28;20056;-67
2021/08/18 03:35:15;;;;;;;6.00;4.00;;;18.70;99.90;;;19.08;83.59;101527.88;5073713;28;20044;-67
2021/08/18 03:37:46;;;;;;;7.18;4.00;;;18.70;99.90;;;19.16;83.23;101520.50;5056116;28;20036;-67
2021/08/18 03:40:16;;;;;;;7.65;4.05;;;18.70;99.90;;;19.16;83.29;101520.50;5073550;28;20041;-67
2021/08/18 03:42:46;;;;;;;5.70;4.47;;;18.70;99.90;;;19.17;83.70;101523.13;5073877;28;20464;-67
2021/08/18 03:45:17;;;;;;;5.47;4.40;;;18.80;99.90;;;19.26;83.23;101522.84;5072984;28;20044;-67
2021/08/18 03:47:46;;;;;;;6.88;4.25;;;18.80;99.90;;;19.29;83.43;101517.41;5073897;28;20098;-67
2021/08/18 03:50:14;;;;;;;6.88;4.65;;;18.90;99.90;;;19.34;82.89;101517.28;5073374;28;20071;-67
2021/08/18 03:52:43;;;;;;;8.45;4.65;;;18.90;99.90;;;19.27;83.08;101507.63;5073899;28;20080;-67
2021/08/18 03:55:14;;;;;;;6.90;4.20;;;18.90;99.90;;;19.42;82.39;101512.56;5073628;28;20053;-68
2021/08/18 03:57:44;;;;;;;5.50;4.10;;;19.00;99.90;;;19.31;82.69;101514.66;5073450;28;20098;-68
2021/08/18 04:00:14;;;;;;;5.80;4.45;;;19.00;99.90;;;19.36;82.32;101496.66;5073747;28;20100;-67
2021/08/18 04:02:43;;;;;;;14.18;4.78;;;19.00;99.90;;;19.45;82.64;101516.03;5073404;28;20066;-67
2021/08/18 04:05:13;;;;;;;7.30;4.55;;;19.10;99.90;;;19.48;82.44;101520.44;5073295;28;20040;-67
2021/08/18 04:07:42;;;;;;;6.38;4.00;;;19.10;99.90;;;19.54;82.44;101517.56;5073238;28;20491;-67
2021/08/18 04:10:14;;;;;;;5.60;4.47;;;19.10;99.90;;;19.53;82.14;101518.50;5073135;28;20463;-68
2021/08/18 04:12:55;;;;;;;5.57;4.20;;;19.10;99.90;;;19.61;81.93;101513.75;5073578;28;20041;-69
2021/08/18 04:15:25;;;;;;;7.03;4.18;;;19.20;99.90;;;19.55;82.41;101513.97;5073489;28;20549;-69
2021/08/18 04:17:54;;;;;;;7.88;4.82;;;19.20;99.90;;;19.66;82.13;101518.06;5073257;28;20441;-69
2021/08/18 04:20:23;;;;;;;9.68;5.30;;;19.30;99.90;;;19.59;82.36;101515.59;5072038;28;20036;-69
2021/08/18 04:22:52;;;;;;;9.18;5.43;;;19.20;99.90;;;19.44;82.93;101513.41;5073433;28;20045;-68
2021/08/18 04:25:21;;;;;;;9.52;5.88;;;19.20;99.90;;;19.46;83.10;101516.91;5073390;28;20048;-69
2021/08/18 04:27:51;;;;;;;5.97;5.25;;;19.10;99.90;;;19.46;82.99;101516.91;5073271;28;20075;-67
2021/08/18 04:30:21;;;;;;;8.32;4.93;;;19.10;99.90;;;19.51;83.21;101515.84;5073641;28;20040;-68
2021/08/18 04:32:50;;;;;;;8.45;5.05;;;19.10;99.90;;;19.45;83.42;101502.59;5073282;28;20063;-67
2021/08/18 04:35:21;;;;;;;8.02;5.53;;;19.10;99.90;;;19.62;83.01;101518.22;5055212;28;20060;-68
2021/08/18 04:37:50;;;;;;;5.95;4.80;;;19.20;99.90;;;19.59;82.79;101516.50;5073335;28;20490;-68
2021/08/18 04:40:21;;;;;;;7.18;4.75;;;19.20;99.90;;;19.64;82.71;101519.94;5054835;28;20048;-68
2021/08/18 04:42:50;;;;;;;;;;;19.20;99.90;;;19.65;81.95;101518.09;5073672;28;20474;-67
2021/08/18 04:45:20;;;;;;;7.28;5.35;;;19.30;99.90;;;19.71;81.71;101521.47;5073510;28;20377;-68
2021/08/18 04:47:53;;;;;;;6.65;4.50;;;19.30;99.90;;;19.75;81.75;101507.03;5073264;28;20475;-67
2021/08/18 04:50:22;;;;;;;8.73;5.65;;;19.30;99.90;;;19.80;81.43;101509.59;5071872;28;20418;-68
2021/08/18 04:52:50;;;;;;;7.15;5.50;;;19.40;99.90;;;19.83;81.35;101514.84;5052790;28;20044;-69
2021/08/18 04:55:20;;;;;;;7.97;4.70;;;19.40;99.90;;;19.89;80.89;101511.06;5052934;28;20539;-68
2021/08/18 04:57:48;;;;;;;7.25;5.07;;;19.50;99.90;;;19.88;80.96;101512.03;5054859;28;20083;-68
2021/08/18 05:00:19;;;;;;;5.82;4.50;;;19.50;99.90;;;19.89;80.44;101509.28;5056769;28;20041;-68
2021/08/18 05:02:48;;;;;;;9.85;5.20;;;19.50;99.90;;;19.87;80.52;101510.25;5057125;28;20372;-68
2021/08/18 05:05:17;;;;;;;7.78;5.57;;;19.50;99.90;;;19.92;80.28;101508.31;5056423;28;20083;-68
2021/08/18 05:07:46;;;;;;;7.78;5.10;;;19.50;99.90;;;19.97;79.89;101507.22;5056491;28;20071;-68
2021/08/18 05:10:14;;;;;;;7.78;5.05;;;19.60;99.90;;;20.03;79.67;101507.03;5056265;28;20461;-68
2021/08/18 05:12:42;;;;;;;5.78;4.63;;;19.60;99.90;;;20.06;79.31;101500.66;5056182;28;20065;-67
2021/08/18 05:15:12;;;;;;;5.88;4.43;;;19.70;99.90;;;20.06;79.08;101504.22;5056218;28;20045;-70
2021/08/18 05:17:46;;;;;;;6.43;4.20;;;19.70;99.90;;;20.09;79.02;101501.41;5055249;28;20384;-69
2021/08/18 05:20:17;;;;;;;6.80;4.73;;;19.70;99.90;;;20.07;79.05;101495.25;5056496;28;20094;-69
2021/08/18 05:22:47;;;;;;;4.82;4.32;;;19.80;99.90;;;20.14;78.75;101502.16;5056878;28;20045;-69
2021/08/18 05:25:18;;;;;;;6.30;4.10;;;19.80;99.90;;;20.10;78.95;101484.38;5057178;28;20059;-68
2021/08/18 05:27:47;;;;;;;8.43;4.93;;;19.80;99.90;;;20.14;78.85;101486.06;5055251;28;20115;-68
2021/08/18 05:30:17;;;;;;;7.43;4.70;;;19.80;99.90;;;20.19;78.84;101480.56;5056553;28;20048;-66
2021/08/18 05:32:47;;;;;;;6.80;5.37;;;19.80;99.90;;;20.04;79.11;101478.34;5056686;28;20041;-69
2021/08/18 05:35:16;;;;;;;7.85;5.40;;;19.80;99.90;;;20.18;79.03;101482.38;5072151;28;20303;-69
2021/08/18 05:37:45;;;;;;;5.82;4.75;;;19.80;99.90;;;20.19;79.12;101486.78;5057023;28;20120;-69
2021/08/18 05:40:15;;;;;;;6.38;4.85;;;19.80;99.90;;;20.16;79.25;101488.69;5056889;28;20127;-69
2021/08/18 05:42:43;;;;;;;5.05;4.40;;;19.80;99.90;;;20.17;79.26;101491.31;5056148;28;20064;-69
2021/08/18 05:45:12;;;;;;;8.05;5.68;;;19.80;99.90;;;20.17;79.30;101499.34;5056472;28;20033;-70
2021/08/18 05:47:41;;;;;;;6.00;4.68;;;19.80;99.90;;;20.18;79.45;101493.09;5056434;28;20132;-68
2021/08/18 05:50:14;;;;;;;8.65;5.03;;;19.80;99.90;;;20.19;79.29;101496.69;5056021;28;20055;-69
2021/08/18 05:52:42;;;;;;;5.43;4.50;;;19.90;99.90;;;20.24;79.30;101497.41;5075138;28;20549;-70
2021/08/18 05:55:12;;;;;;;9.07;5.75;;;19.80;99.90;;;20.28;79.25;101505.31;5058053;28;20071;-70
2021/08/18 05:57:40;;;;;;;7.30;5.35;;;19.90;99.90;;;20.29;79.31;101488.25;5075676;28;20045;-77
2021/08/18 06:00:11;;;;;;;5.18;4.70;;;19.90;99.90;;;20.33;79.24;101497.06;5075828;28;20064;-69
2021/08/18 06:02:40;;;;;;;7.43;5.50;;;19.90;99.90;;;20.29;79.40;101488.25;5075828;28;20059;-66
2021/08/18 06:05:11;;;;;;;8.43;6.28;;;19.90;99.90;;;20.30;79.31;101500.75;5075503;28;20079;-67
2021/08/18 06:07:40;;;;;;;6.40;5.70;;;19.90;99.90;;;20.17;79.50;101503.88;5075984;28;20472;-68
2021/08/18 06:10:09;;;;;;;10.45;6.10;;;19.90;99.90;;;20.25;79.73;101501.81;5075638;28;20483;-69
2021/08/18 06:12:38;;;;;;;9.20;6.20;;;19.90;99.90;;;20.20;80.14;101499.31;5075987;28;20072;-69
2021/08/18 06:15:07;;;;;;;8.10;6.57;;;19.90;99.90;;;20.24;80.09;101500.97;5076101;28;20037;-69
2021/08/18 06:17:36;;;;;;;9.77;6.68;;;19.90;99.90;;;20.30;79.65;101499.88;5075528;28;20044;-69
2021/08/18 06:20:07;;;;;;;7.45;6.75;;;20.00;99.90;;;20.22;79.70;101494.75;5075975;28;20481;-68
2021/08/18 06:22:37;;;;;;;;;;;19.90;99.90;;;20.33;79.53;101507.81;5075995;28;20560;-67
2021/08/18 06:25:07;;;;;;;6.65;5.97;;;20.00;99.90;;;20.35;79.47;101505.97;5075486;28;19966;-68
2021/08/18 06:27:36;;;;;;;8.40;5.68;;;20.00;99.90;;;20.03;80.13;101472.09;5075157;28;20055;-70
2021/08/18 06:30:05;;;;;;;7.85;6.13;;;19.90;99.90;;;20.20;79.73;101496.63;5057419;28;20052;-71
2021/08/18 06:32:34;;;;;;;10.15;6.45;;;19.80;99.90;;;20.23;79.52;101503.69;5075128;28;20064;-69
2021/08/18 06:35:04;;;;;;;7.65;6.85;;;19.80;99.90;;;20.30;79.27;101503.44;5075004;28;20041;-70
2021/08/18 06:37:41;;;;;;;7.28;5.72;;;19.90;99.90;;;20.33;79.15;101505.13;5075254;28;20055;-70
2021/08/18 06:40:12;;;;;;;8.85;6.32;;;20.00;99.90;;;20.40;79.08;101502.19;5057032;28;20067;-70
2021/08/18 06:42:42;;;;;;;10.85;6.88;;;20.10;99.90;;;20.40;78.92;101502.19;5057284;28;20099;-70
2021/08/18 06:45:13;;;;;;;7.63;6.15;;;20.10;99.90;;;20.39;79.17;101497.75;5074889;28;20075;-71
2021/08/18 06:47:42;;;;;;;8.60;6.35;;;20.10;99.90;;;20.42;79.20;101504.84;5057139;28;20056;-70
2021/08/18 06:50:12;;;;;;;10.70;6.93;;;20.10;99.90;;;20.41;79.50;101509.31;5074899;28;20474;-70
2021/08/18 06:52:43;;;;;;;8.48;6.70;;;20.10;99.90;;;20.45;79.02;101504.72;5075160;28;20109;-71
2021/08/18 06:55:12;;;;;;;10.93;7.47;;;20.10;99.90;;;20.41;79.31;101508.44;5074606;28;20040;-71
2021/08/18 06:57:41;;;;;;;10.30;7.80;;;20.10;99.90;;;20.42;79.43;101510.22;5074957;28;20091;-70
2021/08/18 07:00:11;;;;;;;8.45;7.70;;;20.10;99.90;;;20.44;79.75;101501.13;5075033;28;20056;-70
2021/08/18 07:02:45;;;;;;;15.73;9.23;;;20.10;99.90;;;20.48;79.37;101505.47;5056921;28;20040;-71
2021/08/18 07:05:15;;;;;;;11.55;8.95;;;20.10;99.90;;;20.45;80.29;101504.72;5074478;28;20135;-69
2021/08/18 07:07:45;;;;;;;11.93;8.48;;;20.10;99.90;;;20.46;80.00;101506.50;5074484;28;20041;-69
2021/08/18 07:10:16;;;;;;;11.07;7.88;;;20.10;99.90;;;20.44;79.84;101509.19;5074484;28;20498;-69
2021/08/18 07:12:44;;;;;;;;;;;20.10;99.90;;;20.44;79.72;101505.66;5075472;28;20070;-69
2021/08/18 07:15:14;;;;;;;12.93;8.48;;;20.10;99.90;;;20.47;79.48;101508.22;5074254;28;19921;-70
2021/08/18 07:17:42;;;;;;;10.45;8.23;;;20.10;99.90;;;20.49;79.34;101501.00;5056608;28;20083;-69
2021/08/18 07:20:13;;;;;;;11.57;9.30;;;20.20;99.90;;;20.47;79.42;101501.06;5073310;28;20139;-68
2021/08/18 07:22:41;;;;;;;11.27;9.15;;;20.10;99.90;;;20.44;78.96;101501.13;5074295;28;20155;-70
2021/08/18 07:25:12;;;;;;;9.88;8.85;;;20.10;99.90;;;20.49;78.65;101498.31;5074081;28;20044;-69
2021/08/18 07:27:41;;;;;;;11.13;8.73;;;20.20;99.90;;;20.55;78.35;101503.47;5074249;28;20036;-69
2021/08/18 07:30:11;;;;;;;10.55;8.90;;;20.20;99.90;;;20.61;78.63;101504.09;5073902;28;20123;-67
2021/08/18 07:32:39;;;;;;;13.75;8.55;;;20.30;99.90;;;20.51;79.03;101502.69;5074186;28;20052;-69
2021/08/18 07:35:09;;;;;;;10.65;9.57;;;20.30;99.90;;;20.53;78.86;101506.22;5073773;28;20100;-70
2021/08/18 07:37:38;;;;;;;12.32;9.43;;;20.20;99.90;;;20.46;78.69;101476.91;5073844;28;20102;-70
2021/08/18 07:40:08;;;;;;;12.30;9.65;;;20.30;99.90;;;20.56;78.58;101492.66;5073599;28;20048;-70
2021/08/18 07:42:38;;;;;;;13.43;9.27;;;20.30;99.90;;;20.60;78.15;101498.78;5072723;28;20072;-69
2021/08/18 07:45:09;;;;;;;12.47;10.67;;;20.30;99.90;;;20.49;78.78;101493.81;5073890;28;20041;-68
2021/08/18 07:47:37;;;;;;;11.63;9.82;;;20.20;99.90;;;20.52;78.23;101500.88;5073511;28;20287;-70
2021/08/18 07:50:07;;;;;;;10.68;9.52;;;20.20;99.90;;;20.64;78.33;101495.06;5073531;28;20045;-69
2021/08/18 07:52:36;;;;;;;12.02;9.45;;;20.30;99.90;;;20.53;78.55;101492.78;5073556;28;20109;-70
2021/08/18 07:55:07;;;;;;;13.82;10.57;;;20.20;99.90;;;20.55;78.48;101500.78;5073435;28;20048;-70
2021/08/18 07:57:37;;;;;;;11.20;10.05;;;20.20;99.90;;;20.51;79.18;101496.44;5073468;28;20119;-71
2021/08/18 08:00:09;;;;;;;15.95;10.25;;;20.20;99.90;;;20.28;80.31;101491.00;5073495;28;20044;-69
2021/08/18 08:02:44;;;;;;;13.02;10.52;;;20.00;99.90;;;20.44;80.18;101497.59;5073298;28;20068;-70
2021/08/18 08:05:15;;;;;;;14.48;10.45;;;20.00;99.90;;;20.41;80.60;101503.94;5072340;28;20086;-70
2021/08/18 08:07:44;;;;;;;12.93;11.27;;;20.00;99.90;;;20.42;80.11;101497.63;5074018;28;20055;-70
2021/08/18 08:10:14;;;;;;;12.75;11.30;;;20.10;99.90;;;20.28;79.97;101489.19;5073191;28;20455;-71
2021/08/18 08:12:43;;;;;;;14.43;11.88;;;20.00;99.90;;;20.35;80.78;101496.09;5073266;28;20071;-69
2021/08/18 08:15:13;;;;;;;12.40;11.17;;;20.00;99.90;;;20.28;80.80;101474.88;5073526;28;20062;-70
2021/08/18 08:17:41;;;;;;;15.18;11.25;;;20.10;99.90;;;20.41;80.46;101503.06;5073113;28;20043;-70
2021/08/18 08:20:11;;;;;;;16.98;12.10;;;20.10;99.90;;;20.44;80.24;101509.19;5073126;28;20098;-69
2021/08/18 08:22:40;;;;;;;14.20;10.38;;;20.10;99.90;;;20.50;80.21;101510.78;5073614;28;20048;-70
2021/08/18 08:25:12;;;;;;;15.45;12.23;;;20.20;99.90;;;20.55;79.97;101512.41;5055979;28;20041;-70
2021/08/18 08:27:41;;;;;;;16.63;11.98;;;20.20;99.90;;;20.23;81.13;101509.94;5073441;28;20097;-67
2021/08/18 08:30:13;;;;;;;14.18;11.95;;;20.10;99.90;;;20.43;80.23;101506.56;5073179;28;20106;-70
2021/08/18 08:32:42;;;;;;;14.10;11.65;;;20.10;99.90;;;20.32;80.29;101504.28;5072722;28;20043;-71
2021/08/18 08:35:11;;;;;;;15.65;11.50;;;20.10;99.90;;;20.43;79.97;101510.16;5073278;28;20048;-69
2021/08/18 08:37:40;;;;;;;14.55;11.40;;;20.10;99.90;;;20.30;79.67;101506.13;5072765;28;20055;-70
2021/08/18 08:40:10;;;;;;;14.43;11.23;;;20.10;99.90;;;20.22;79.91;101510.00;5072854;28;20124;-70
2021/08/18 08:42:40;;;;;;;16.33;11.05;;;19.90;99.90;;;19.99;80.45;101500.00;5071967;28;20569;-70
2021/08/18 08:45:12;;;;;;;15.02;10.98;;;19.80;99.90;;;20.02;80.44;101512.41;5073478;28;20059;-70
2021/08/18 08:47:42;;;;;;;16.08;10.57;;;19.70;99.90;;;19.99;79.58;101524.16;5073253;28;20044;-70
2021/08/18 08:50:13;;;;;;;16.27;10.33;;;19.70;99.90;;;19.89;79.93;101490.47;5073139;28;20621;-69
2021/08/18 08:52:42;;;;;;;16.80;11.32;;;19.70;99.90;;;19.99;80.20;101500.00;5073221;28;20299;-68
2021/08/18 08:55:12;;;;;;;15.10;10.57;;;19.70;99.90;;;19.93;79.90;101516.31;5072770;28;20068;-69
2021/08/18 08:57:49;;;;;;;13.77;9.80;;;19.70;99.90;;;19.89;80.51;101509.28;5072724;28;20036;-69
2021/08/18 09:00:22;;;;;;;15.10;9.80;;;19.60;99.90;;;19.85;80.03;101506.72;5072928;28;20041;-68
2021/08/18 09:03:09;;;;;;;15.30;9.88;;;19.60;99.90;;;19.75;80.73;101512.41;5072747;28;20056;-70
2021/08/18 09:05:39;;;;;;;17.17;10.40;;;19.50;99.90;;;19.62;80.69;101483.31;5072778;28;20132;-70
2021/08/18 09:08:11;;;;;;;15.52;10.15;;;19.40;99.90;;;19.91;80.58;101510.09;5072538;28;20498;-70
2021/08/18 09:10:42;;;;;;;10.75;9.20;;;19.60;99.90;;;20.04;80.28;101511.47;5072622;28;20044;-70
2021/08/18 09:13:14;;;;;;;19.02;9.55;;;19.70;99.90;;;20.05;79.80;101509.66;5072677;28;20563;-69
2021/08/18 09:16:03;;;;;;;13.80;9.10;;;19.70;99.90;;;19.80;78.40;101458.56;5072867;28;20040;-70
2021/08/18 09:18:43;;;;;;;13.07;8.57;;;19.80;99.90;;;20.16;78.18;101507.47;5072473;28;20051;-69
2021/08/18 09:21:36;;;;;;;15.50;9.07;;;19.80;99.90;;;20.33;78.23;101508.69;5072639;28;20082;-69
2021/08/18 09:24:29;;;;;;;13.23;8.63;;;20.00;99.90;;;20.35;78.74;101500.59;5071583;28;20048;-70
2021/08/18 09:27:00;;;;;;;12.18;8.50;;;20.10;99.90;;;20.45;78.59;101507.41;5072920;28;20039;-70
2021/08/18 09:29:35;;;;;;;11.15;7.93;;;20.10;99.90;;;20.39;76.93;101499.53;5054974;28;20052;-70
2021/08/18 09:32:28;;;;;;;13.00;8.40;;;20.10;99.90;;;20.52;76.20;101507.13;5072569;28;20044;-70
2021/08/18 09:35:09;;;;;;;12.13;7.80;;;20.20;99.90;;;20.54;77.03;101505.25;5054807;28;20048;-69
2021/08/18 09:37:39;;;;;;;14.30;8.15;;;20.30;99.90;;;20.45;77.09;101507.41;5072397;28;20393;-68
2021/08/18 09:40:20;;;;;;;12.07;7.80;;;20.20;99.90;;;20.63;76.20;101512.16;5072394;28;20044;-70
2021/08/18 09:42:49;;;;;;;;;;;20.30;99.90;;;20.63;76.36;101507.63;5073239;28;20052;-70
2021/08/18 09:45:25;;;;;;;12.27;7.40;;;20.40;99.90;;;20.67;75.56;101503.88;5076150;28;19927;-70
2021/08/18 09:48:06;;;;;;;10.70;7.53;;;20.40;99.90;;;20.54;75.42;101510.66;5076289;28;20048;-69
2021/08/18 09:50:48;;;;;;;12.70;7.60;;;20.30;99.90;;;20.59;75.31;101507.81;5076007;28;20070;-67
2021/08/18 09:53:19;;;;;;;12.18;7.50;;;20.30;99.90;;;20.72;75.07;101505.53;5076229;28;20044;-67
2021/08/18 09:55:52;;;;;;;9.82;7.78;;;20.40;99.90;;;20.68;74.82;101496.72;5075883;28;20041;-66
2021/08/18 09:58:24;;;;;;;8.73;7.47;;;20.40;99.90;;;20.65;74.55;101495.00;5075991;28;20044;-68
2021/08/18 10:00:54;;;;;;;11.23;7.68;;;20.40;99.90;;;20.68;74.58;101491.34;5076024;28;20128;-69
2021/08/18 10:03:25;;;;;;;13.20;7.65;;;20.40;99.90;;;20.76;74.90;101500.00;5076443;28;20060;-69
2021/08/18 10:05:55;;;;;;;12.85;7.18;;;20.40;99.90;;;20.71;74.74;101490.34;5075463;28;20079;-69
2021/08/18 10:08:25;;;;;;;11.90;7.55;;;20.50;99.90;;;20.72;74.72;101489.41;5075547;28;20127;-69
2021/08/18 10:10:54;;;;;;;10.95;7.78;;;20.40;99.90;;;20.81;74.72;101503.41;5075554;28;20049;-68
2021/08/18 10:13:24;;;;;;;8.40;6.68;;;20.50;99.90;;;20.80;74.28;101495.38;5074600;28;20459;-68
2021/08/18 10:15:53;;;;;;;10.27;7.43;;;20.50;99.90;;;20.88;74.05;101496.00;5075451;28;20041;-68
2021/08/18 10:18:34;;;;;;;12.95;7.32;;;20.60;99.90;;;20.93;73.41;101494.00;5075288;28;20037;-68
2021/08/18 10:21:06;;;;;;;9.57;7.15;;;20.60;99.90;;;21.12;73.26;101492.41;5075717;28;20047;-68
2021/08/18 10:23:44;;;;;;;12.65;7.35;;;20.80;99.90;;;21.32;72.56;101487.16;5057673;28;20068;-69